KGVL/GVL METAR and TAF weather

Enter ICAO airport designator
Station Type Date Time Source
KGVL METAR 2019/06/19 07:20 UTC NOAA

KGVL 190720Z AUTO 21005KT 9SM SCT004 BKN009 OVC025 21/21 A2994 RMK AO2 CIG 008V012 T02110211


Station Type Date Time Source
KGVL Decoded METAR 2019/06/19 07:20 UTC NOAA

GILMER MEMORIAL AIRPORT, GA, United States (KGVL) 34-16N 83-50W 386M
Jun 19, 2019 - 03:20 AM EDT / 2019.06.19 0720 UTC
Wind: from the SSW (210 degrees) at 6 MPH (5 KT):0
Visibility: 9 mile(s):0
Sky conditions: overcast
Temperature: 70.0 F (21.1 C)
Dew Point: 70.0 F (21.1 C)
Relative Humidity: 100%
Pressure (altimeter): 29.94 in. Hg (1013 hPa)
ob: KGVL 190720Z AUTO 21005KT 9SM SCT004 BKN009 OVC025 21/21 A2994 RMK AO2 CIG 008V012 T02110211
cycle: 7

Station Type Date Time Source
KGVL TAF UTC NOAA

Error!

Example: see airport list